createdAt,value
2023-05-05T00:00:58.324Z,101592.22
2023-05-05T00:03:25.472Z,101589.09
2023-05-05T00:05:57.419Z,101587.28
2023-05-05T00:08:23.967Z,101596.94
2023-05-05T00:10:52.430Z,101600.34
2023-05-05T00:13:20.586Z,101599.06
2023-05-05T00:15:49.157Z,101595.13
2023-05-05T00:18:17.153Z,101597.31
2023-05-05T00:20:44.555Z,101590.97
2023-05-05T00:23:11.002Z,101589.31
2023-05-05T00:25:37.559Z,101586.84
2023-05-05T00:28:04.232Z,101575.31
2023-05-05T00:30:30.785Z,101590.97
2023-05-05T00:32:57.402Z,101579.84
2023-05-05T00:35:24.012Z,101571.19
2023-05-05T00:37:50.505Z,101572.00
2023-05-05T00:40:18.677Z,101573.03
2023-05-05T00:42:47.321Z,101588.22
2023-05-05T00:45:15.763Z,101593.84
2023-05-05T00:47:44.986Z,101596.69
2023-05-05T00:50:15.737Z,101609.47
2023-05-05T00:52:42.422Z,101598.81
2023-05-05T00:55:09.426Z,101604.03
2023-05-05T00:57:36.094Z,101604.69
2023-05-05T01:00:02.855Z,101602.66
2023-05-05T01:02:31.181Z,101580.81
2023-05-05T01:04:58.452Z,101585.41
2023-05-05T01:07:45.552Z,101592.50
2023-05-05T01:10:40.919Z,101584.75
2023-05-05T01:13:32.262Z,101585.00
2023-05-05T01:16:03.820Z,101584.00
2023-05-05T01:18:53.921Z,101588.13
2023-05-05T01:21:28.853Z,101591.69
2023-05-05T01:24:14.153Z,101594.50
2023-05-05T01:26:59.061Z,101590.50
2023-05-05T01:29:48.410Z,101595.53
2023-05-05T01:32:18.376Z,101608.00
2023-05-05T01:34:56.076Z,101606.00
2023-05-05T01:37:29.071Z,101608.31
2023-05-05T01:39:59.235Z,101611.03
2023-05-05T01:42:28.932Z,101605.31
2023-05-05T01:44:57.238Z,101597.06
2023-05-05T01:47:24.738Z,101609.28
2023-05-05T01:49:52.334Z,101607.88
2023-05-05T01:52:20.390Z,101617.38
2023-05-05T01:54:47.957Z,101624.63
2023-05-05T01:57:15.232Z,101631.81
2023-05-05T01:59:41.853Z,101635.97
2023-05-05T02:02:10.959Z,101643.00
2023-05-05T02:04:41.575Z,101641.97
2023-05-05T02:07:08.810Z,101623.88
2023-05-05T02:09:37.061Z,101606.81
2023-05-05T02:12:05.255Z,101590.34
2023-05-05T02:14:32.838Z,101593.66
2023-05-05T02:16:59.641Z,101579.47
2023-05-05T02:19:36.297Z,101575.94
2023-05-05T02:22:03.082Z,101581.28
2023-05-05T02:24:29.640Z,101605.50
2023-05-05T02:26:58.259Z,101614.50
2023-05-05T02:29:32.931Z,101605.41
2023-05-05T02:32:06.055Z,101600.44
2023-05-05T02:34:38.271Z,101597.31
2023-05-05T02:37:08.657Z,101606.19
2023-05-05T02:39:45.312Z,101602.03
2023-05-05T02:42:18.410Z,101600.34
2023-05-05T02:44:45.811Z,101606.84
2023-05-05T02:47:12.280Z,101596.09
2023-05-05T02:49:38.739Z,101597.44
2023-05-05T02:52:05.445Z,101594.69
2023-05-05T02:54:33.158Z,101600.81
2023-05-05T02:57:00.583Z,101600.22
2023-05-05T02:59:27.084Z,101602.38
2023-05-05T03:02:02.680Z,101603.69
2023-05-05T03:04:39.950Z,101602.97
2023-05-05T03:07:13.187Z,101609.53
2023-05-05T03:09:55.892Z,101605.75
2023-05-05T03:12:28.247Z,101610.28
2023-05-05T03:14:56.246Z,101617.19
2023-05-05T03:17:24.647Z,101613.97
2023-05-05T03:19:51.920Z,101622.47
2023-05-05T03:22:18.588Z,101620.97
2023-05-05T03:24:50.008Z,101621.81
2023-05-05T03:27:16.472Z,101625.50
2023-05-05T03:29:42.988Z,101635.81
2023-05-05T03:32:09.567Z,101638.00
2023-05-05T03:34:37.711Z,101639.00
2023-05-05T03:37:04.202Z,101631.56
2023-05-05T03:39:31.108Z,101626.88
2023-05-05T03:41:57.580Z,101618.03
2023-05-05T03:44:24.107Z,101624.09
2023-05-05T03:46:50.600Z,101635.63
2023-05-05T03:49:17.103Z,101639.69
2023-05-05T03:51:44.288Z,101639.69
2023-05-05T03:54:11.004Z,101649.50
2023-05-05T03:56:37.484Z,101655.84
2023-05-05T03:59:04.019Z,101658.09
2023-05-05T04:01:31.439Z,101654.28
2023-05-05T04:03:58.011Z,101655.50
2023-05-05T04:06:24.671Z,101664.53
2023-05-05T04:08:51.856Z,101671.88
2023-05-05T04:11:18.317Z,101676.75
2023-05-05T04:13:44.843Z,101685.75
2023-05-05T04:16:11.460Z,101686.75
2023-05-05T04:18:38.282Z,101692.94
2023-05-05T04:21:04.800Z,101695.78
2023-05-05T04:23:31.363Z,101697.44
2023-05-05T04:25:57.865Z,101695.78
2023-05-05T04:28:24.439Z,101699.66
2023-05-05T04:30:50.921Z,101688.88
2023-05-05T04:33:17.440Z,101705.81
2023-05-05T04:35:43.884Z,101713.44
2023-05-05T04:38:10.333Z,101729.28
2023-05-05T04:40:41.284Z,101727.63
2023-05-05T04:43:09.603Z,101714.94
2023-05-05T04:45:36.148Z,101714.44
2023-05-05T04:48:04.314Z,101714.81
2023-05-05T04:50:31.390Z,101718.97
2023-05-05T04:52:57.905Z,101728.28
2023-05-05T04:55:24.410Z,101733.06
2023-05-05T04:57:50.989Z,101724.88
2023-05-05T05:00:17.706Z,101741.81
2023-05-05T05:02:44.333Z,101733.81
2023-05-05T05:05:10.932Z,101741.09
2023-05-05T05:07:37.379Z,101741.53
2023-05-05T05:10:04.307Z,101738.06
2023-05-05T05:12:30.907Z,101741.38
2023-05-05T05:14:57.387Z,101734.38
2023-05-05T05:17:24.842Z,101743.13
2023-05-05T05:19:51.484Z,101744.25
2023-05-05T05:22:17.928Z,101740.56
2023-05-05T05:24:44.367Z,101735.66
2023-05-05T05:27:11.385Z,101737.81
2023-05-05T05:29:37.949Z,101747.47
2023-05-05T05:32:04.745Z,101740.91
2023-05-05T05:34:31.416Z,101742.84
2023-05-05T05:36:57.910Z,101742.97
2023-05-05T05:39:24.413Z,101751.03
2023-05-05T05:41:51.405Z,101757.03
2023-05-05T05:44:17.955Z,101763.50
2023-05-05T05:46:44.464Z,101765.78
2023-05-05T05:49:11.060Z,101761.69
2023-05-05T05:51:37.612Z,101767.97
2023-05-05T05:54:04.216Z,101763.13
2023-05-05T05:56:30.945Z,101770.19
2023-05-05T05:58:57.625Z,101763.06
2023-05-05T06:01:24.072Z,101762.91
2023-05-05T06:03:50.648Z,101761.03
2023-05-05T06:06:17.223Z,101764.63
2023-05-05T06:08:43.836Z,101766.16
2023-05-05T06:11:10.306Z,101766.44
2023-05-05T06:13:36.801Z,101753.16
2023-05-05T06:16:03.391Z,101746.41
2023-05-05T06:18:29.852Z,101752.06
2023-05-05T06:20:56.432Z,101755.84
2023-05-05T06:23:22.983Z,101756.34
2023-05-05T06:25:49.515Z,101761.75
2023-05-05T06:28:16.241Z,101770.28
2023-05-05T06:30:42.700Z,101767.94
2023-05-05T06:33:09.182Z,101762.59
2023-05-05T06:35:35.687Z,101761.47
2023-05-05T06:38:02.179Z,101764.00
2023-05-05T06:40:28.667Z,101771.28
2023-05-05T06:42:55.253Z,101762.06
2023-05-05T06:45:21.766Z,101765.63
2023-05-05T06:47:49.109Z,101774.13
2023-05-05T06:50:15.701Z,101772.09
2023-05-05T06:52:42.558Z,101773.59
2023-05-05T06:55:09.322Z,101775.94
2023-05-05T06:57:35.811Z,101777.22
2023-05-05T07:00:06.128Z,101784.47
2023-05-05T07:02:33.782Z,101789.03
2023-05-05T07:05:00.370Z,101785.53
2023-05-05T07:07:27.061Z,101792.63
2023-05-05T07:09:53.541Z,101787.72
2023-05-05T07:12:20.043Z,101797.25
2023-05-05T07:14:47.011Z,101793.94
2023-05-05T07:17:13.531Z,101793.72
2023-05-05T07:19:40.008Z,101792.75
2023-05-05T07:22:06.596Z,101795.63
2023-05-05T07:24:33.033Z,101785.75
2023-05-05T07:27:01.300Z,101799.75
2023-05-05T07:29:27.761Z,101793.31
2023-05-05T07:31:54.290Z,101798.94
2023-05-05T07:34:20.920Z,101805.59
2023-05-05T07:36:47.483Z,101800.66
2023-05-05T07:39:15.278Z,101800.06
2023-05-05T07:41:42.499Z,101800.25
2023-05-05T07:44:09.077Z,101800.06
2023-05-05T07:46:35.671Z,101799.66
2023-05-05T07:49:02.197Z,101793.25
2023-05-05T07:51:28.780Z,101802.56
2023-05-05T07:53:55.932Z,101798.41
2023-05-05T07:56:22.482Z,101801.34
2023-05-05T07:58:48.929Z,101797.81
2023-05-05T08:01:15.955Z,101793.22
2023-05-05T08:03:42.729Z,101791.75
2023-05-05T08:06:09.943Z,101791.72
2023-05-05T08:08:37.007Z,101790.22
2023-05-05T08:11:04.257Z,101790.63
2023-05-05T08:13:30.841Z,101798.50
2023-05-05T08:15:57.328Z,101799.50
2023-05-05T08:18:24.561Z,101807.69
2023-05-05T08:20:51.944Z,101801.28
2023-05-05T08:23:18.581Z,101804.56
2023-05-05T08:25:45.017Z,101796.28
2023-05-05T08:28:11.813Z,101788.72
2023-05-05T08:30:38.536Z,101789.72
2023-05-05T08:33:05.144Z,101796.44
2023-05-05T08:35:31.637Z,101799.84
2023-05-05T08:37:59.310Z,101795.75
2023-05-05T08:40:31.792Z,101807.00
2023-05-05T08:42:58.973Z,101814.91
2023-05-05T08:45:27.799Z,101814.47
2023-05-05T08:47:56.721Z,101815.28
2023-05-05T08:50:28.198Z,101813.19
2023-05-05T08:53:11.566Z,101812.16
2023-05-05T08:55:50.972Z,101816.50
2023-05-05T08:58:22.084Z,101819.38
2023-05-05T09:00:49.827Z,101825.00
2023-05-05T09:03:16.748Z,101811.13
2023-05-05T09:05:43.941Z,101825.00
2023-05-05T09:08:11.230Z,101823.34
2023-05-05T09:10:41.546Z,101814.22
2023-05-05T09:13:08.493Z,101812.97
2023-05-05T09:15:35.439Z,101808.66
2023-05-05T09:18:02.464Z,101817.34
2023-05-05T09:20:39.757Z,101820.06
2023-05-05T09:23:15.472Z,101812.84
2023-05-05T09:25:45.818Z,101807.16
2023-05-05T09:28:17.258Z,101812.06
2023-05-05T09:30:46.694Z,101815.41
2023-05-05T09:33:13.904Z,101815.47
2023-05-05T09:35:50.875Z,101824.94
2023-05-05T09:38:17.960Z,101811.53
2023-05-05T09:40:46.856Z,101817.78
2023-05-05T09:43:13.591Z,101813.63
2023-05-05T09:45:40.062Z,101812.91
2023-05-05T09:48:07.406Z,101817.06
2023-05-05T09:50:44.241Z,101810.00
2023-05-05T09:53:10.982Z,101806.28
2023-05-05T09:55:38.098Z,101808.31
2023-05-05T09:58:27.239Z,101813.63
2023-05-05T10:00:55.693Z,101808.06
2023-05-05T10:03:22.678Z,101808.31
2023-05-05T10:05:54.123Z,101805.88
2023-05-05T10:08:22.709Z,101803.84
2023-05-05T10:10:53.542Z,101815.44
2023-05-05T10:13:22.211Z,101829.53
2023-05-05T10:15:53.942Z,101854.22
2023-05-05T10:18:25.173Z,101883.16
2023-05-05T10:21:02.972Z,101888.88
2023-05-05T10:23:41.557Z,101864.06
2023-05-05T10:26:12.621Z,101868.28
2023-05-05T10:28:54.915Z,101882.06
2023-05-05T10:31:28.418Z,101872.59
2023-05-05T10:34:03.413Z,101872.66
2023-05-05T10:36:30.575Z,101879.22
2023-05-05T10:39:00.167Z,101868.84
2023-05-05T10:41:27.000Z,101863.16
2023-05-05T10:43:58.784Z,101874.78
2023-05-05T10:46:27.223Z,101876.84
2023-05-05T10:49:06.968Z,101877.56
2023-05-05T10:52:00.301Z,101885.78
2023-05-05T10:55:01.795Z,101870.69
2023-05-05T10:57:29.408Z,101872.56
2023-05-05T10:59:55.947Z,101882.28
2023-05-05T11:02:29.674Z,101894.25
2023-05-05T11:05:22.686Z,101897.78
2023-05-05T11:07:51.106Z,101904.41
2023-05-05T11:10:22.792Z,101904.59
2023-05-05T11:12:52.279Z,101904.38
2023-05-05T11:15:28.330Z,101907.16
2023-05-05T11:17:56.469Z,101904.63
2023-05-05T11:20:35.535Z,101902.03
2023-05-05T11:23:01.959Z,101902.53
2023-05-05T11:25:34.570Z,101891.00
2023-05-05T11:28:21.204Z,101891.50
2023-05-05T11:30:57.846Z,101901.63
2023-05-05T11:33:37.647Z,101906.50
2023-05-05T11:36:06.497Z,101919.00
2023-05-05T11:39:08.660Z,101921.50
2023-05-05T11:41:59.734Z,101926.66
2023-05-05T11:44:33.966Z,101917.34
2023-05-05T11:47:06.175Z,101925.72
2023-05-05T11:49:37.596Z,101920.06
2023-05-05T11:52:07.454Z,101913.28
2023-05-05T11:54:47.473Z,101923.28
2023-05-05T11:57:15.087Z,101925.47
2023-05-05T11:59:55.023Z,101923.81
2023-05-05T12:02:22.943Z,101916.81
2023-05-05T12:04:50.904Z,101913.44
2023-05-05T12:07:19.046Z,101907.44
2023-05-05T12:09:47.227Z,101907.94
2023-05-05T12:12:14.709Z,101906.06
2023-05-05T12:14:47.314Z,101902.09
2023-05-05T12:17:14.151Z,101907.38
2023-05-05T12:19:48.895Z,101903.25
2023-05-05T12:22:23.336Z,101905.56
2023-05-05T12:25:01.501Z,101909.34
2023-05-05T12:27:29.123Z,101905.66
2023-05-05T12:29:56.857Z,101901.34
2023-05-05T12:32:27.919Z,101907.16
2023-05-05T12:34:58.891Z,101908.81
2023-05-05T12:37:26.836Z,101906.50
2023-05-05T12:39:56.661Z,101910.47
2023-05-05T12:42:25.421Z,101910.78
2023-05-05T12:44:52.171Z,101899.44
2023-05-05T12:47:32.484Z,101903.28
2023-05-05T12:50:00.250Z,101896.78
2023-05-05T12:52:45.783Z,101900.75
2023-05-05T12:55:13.227Z,101902.41
2023-05-05T12:57:58.524Z,101894.19
2023-05-05T13:00:25.654Z,101893.84
2023-05-05T13:02:53.039Z,101895.63
2023-05-05T13:05:41.079Z,101895.63
2023-05-05T13:08:07.557Z,101889.56
2023-05-05T13:10:33.981Z,101900.34
2023-05-05T13:13:00.563Z,101901.84
2023-05-05T13:15:27.907Z,101903.84
2023-05-05T13:18:01.451Z,101897.28
2023-05-05T13:20:28.205Z,101901.13
2023-05-05T13:22:54.695Z,101897.81
2023-05-05T13:25:21.192Z,101892.31
2023-05-05T13:27:47.836Z,101910.63
2023-05-05T13:30:14.684Z,101905.66
2023-05-05T13:32:41.340Z,101912.88
2023-05-05T13:35:08.993Z,101917.59
2023-05-05T13:37:35.701Z,101908.75
2023-05-05T13:40:02.398Z,101918.78
2023-05-05T13:42:28.880Z,101917.13
2023-05-05T13:44:55.363Z,101931.13
2023-05-05T13:47:21.872Z,101921.31
2023-05-05T13:49:48.913Z,101927.50
2023-05-05T13:52:15.347Z,101924.53
2023-05-05T13:54:41.985Z,101928.22
2023-05-05T13:57:08.844Z,101928.22
2023-05-05T13:59:35.342Z,101920.56
2023-05-05T14:02:01.953Z,101919.91
2023-05-05T14:04:28.491Z,101919.06
2023-05-05T14:06:55.026Z,101919.97
2023-05-05T14:09:21.562Z,101915.44
2023-05-05T14:11:48.045Z,101906.94
2023-05-05T14:14:14.528Z,101901.81
2023-05-05T14:16:41.089Z,101898.03
2023-05-05T14:19:07.585Z,101899.78
2023-05-05T14:21:34.487Z,101888.41
2023-05-05T14:24:01.088Z,101876.72
2023-05-05T14:26:29.542Z,101869.28
2023-05-05T14:28:56.065Z,101879.38
2023-05-05T14:31:22.615Z,101871.09
2023-05-05T14:33:49.210Z,101868.47
2023-05-05T14:36:15.693Z,101860.63
2023-05-05T14:38:42.874Z,101849.75
2023-05-05T14:41:09.612Z,101845.25
2023-05-05T14:43:36.806Z,101841.56
2023-05-05T14:46:06.796Z,101822.75
2023-05-05T14:48:34.111Z,101822.03
2023-05-05T14:51:00.709Z,101815.91
2023-05-05T14:53:27.243Z,101840.47
2023-05-05T14:55:53.704Z,101855.50
2023-05-05T14:58:22.425Z,101871.72
2023-05-05T15:00:48.926Z,101859.50
2023-05-05T15:03:15.507Z,101863.63
2023-05-05T15:05:42.135Z,101869.72
2023-05-05T15:08:08.661Z,101860.28
2023-05-05T15:10:35.147Z,101852.09
2023-05-05T15:13:01.604Z,101852.91
2023-05-05T15:15:28.227Z,101858.09
2023-05-05T15:17:54.788Z,101855.69
2023-05-05T15:20:21.343Z,101844.06
2023-05-05T15:22:49.477Z,101842.78
2023-05-05T15:25:16.274Z,101842.63
2023-05-05T15:27:42.844Z,101853.91
2023-05-05T15:30:11.190Z,101848.03
2023-05-05T15:32:37.891Z,101850.13
2023-05-05T15:35:04.720Z,101840.31
2023-05-05T15:37:31.377Z,101837.69
2023-05-05T15:39:58.394Z,101837.00
2023-05-05T15:42:24.992Z,101825.84
2023-05-05T15:44:51.767Z,101836.00
2023-05-05T15:47:18.334Z,101831.13
2023-05-05T15:49:44.883Z,101838.38
2023-05-05T15:52:11.711Z,101831.81
2023-05-05T15:54:38.256Z,101834.97
2023-05-05T15:57:04.760Z,101831.59
2023-05-05T15:59:31.257Z,101824.72
2023-05-05T16:01:57.696Z,101835.19
2023-05-05T16:04:24.190Z,101825.41
2023-05-05T16:06:50.763Z,101829.19
2023-05-05T16:09:17.677Z,101828.19
2023-05-05T16:11:44.393Z,101828.34
2023-05-05T16:14:10.848Z,101820.44
2023-05-05T16:16:37.377Z,101818.41
2023-05-05T16:19:03.891Z,101826.03
2023-05-05T16:21:30.998Z,101820.03
2023-05-05T16:23:57.507Z,101819.75
2023-05-05T16:26:24.003Z,101812.44
2023-05-05T16:28:50.738Z,101811.00
2023-05-05T16:31:17.276Z,101811.81
2023-05-05T16:33:44.173Z,101807.50
2023-05-05T16:36:11.993Z,101803.91
2023-05-05T16:38:39.314Z,101802.84
2023-05-05T16:41:08.639Z,101804.69
2023-05-05T16:43:37.223Z,101797.84
2023-05-05T16:46:04.168Z,101806.44
2023-05-05T16:48:30.761Z,101816.09
2023-05-05T16:50:57.817Z,101810.50
2023-05-05T16:53:24.750Z,101806.91
2023-05-05T16:55:52.461Z,101798.78
2023-05-05T16:58:20.672Z,101803.69
2023-05-05T17:00:49.015Z,101805.69
2023-05-05T17:03:17.015Z,101811.31
2023-05-05T17:05:44.815Z,101813.59
2023-05-05T17:08:14.021Z,101814.84
2023-05-05T17:10:42.125Z,101809.00
2023-05-05T17:13:09.983Z,101811.06
2023-05-05T17:15:37.531Z,101810.91
2023-05-05T17:18:05.422Z,101818.97
2023-05-05T17:20:32.687Z,101814.06
2023-05-05T17:22:59.411Z,101820.84
2023-05-05T17:25:26.216Z,101815.88
2023-05-05T17:27:52.897Z,101812.72
2023-05-05T17:30:19.558Z,101817.66
2023-05-05T17:32:46.194Z,101824.06
2023-05-05T17:35:13.609Z,101817.56
2023-05-05T17:37:40.249Z,101811.72
2023-05-05T17:40:07.458Z,101809.97
2023-05-05T17:42:33.970Z,101810.38
2023-05-05T17:45:00.613Z,101812.16
2023-05-05T17:47:27.544Z,101816.69
2023-05-05T17:49:55.834Z,101820.00
2023-05-05T17:52:23.522Z,101815.25
2023-05-05T17:54:50.712Z,101828.63
2023-05-05T17:57:18.802Z,101832.47
2023-05-05T17:59:45.251Z,101840.66
2023-05-05T18:02:11.729Z,101836.81
2023-05-05T18:04:38.483Z,101839.72
2023-05-05T18:07:05.324Z,101831.25
2023-05-05T18:09:31.963Z,101827.53
2023-05-05T18:11:58.428Z,101837.81
2023-05-05T18:14:25.013Z,101838.09
2023-05-05T18:16:52.461Z,101837.84
2023-05-05T18:19:21.151Z,101839.59
2023-05-05T18:21:48.657Z,101835.66
2023-05-05T18:24:20.460Z,101842.34
2023-05-05T18:26:52.223Z,101834.44
2023-05-05T18:29:19.575Z,101831.69
2023-05-05T18:31:49.329Z,101835.50
2023-05-05T18:34:16.846Z,101844.50
2023-05-05T18:36:43.641Z,101844.78
2023-05-05T18:39:10.210Z,101841.56
2023-05-05T18:41:37.043Z,101842.53
2023-05-05T18:44:03.864Z,101850.81
2023-05-05T18:46:30.501Z,101848.72
2023-05-05T18:48:57.036Z,101851.28
2023-05-05T18:51:23.487Z,101851.22
2023-05-05T18:53:49.976Z,101853.97
2023-05-05T18:56:16.462Z,101855.69
2023-05-05T18:58:42.915Z,101854.97
2023-05-05T19:01:09.478Z,101859.38
2023-05-05T19:03:36.217Z,101862.94
2023-05-05T19:06:08.853Z,101857.22
2023-05-05T19:08:35.458Z,101863.66
2023-05-05T19:11:01.973Z,101868.34
2023-05-05T19:13:28.544Z,101879.09
2023-05-05T19:15:57.117Z,101863.88
2023-05-05T19:18:24.445Z,101868.56
2023-05-05T19:20:51.110Z,101871.59
2023-05-05T19:23:17.680Z,101867.97
2023-05-05T19:25:44.395Z,101874.31
2023-05-05T19:28:11.380Z,101883.31
2023-05-05T19:30:37.938Z,101887.00
2023-05-05T19:33:04.630Z,101877.56
2023-05-05T19:35:31.528Z,101888.47
2023-05-05T19:37:58.045Z,101883.69
2023-05-05T19:40:24.565Z,101891.72
2023-05-05T19:42:51.117Z,101891.09
2023-05-05T19:45:17.895Z,101891.47
2023-05-05T19:47:44.477Z,101886.66
2023-05-05T19:50:11.422Z,101889.00
2023-05-05T19:52:38.436Z,101888.69
2023-05-05T19:55:05.511Z,101888.38
2023-05-05T19:57:32.195Z,101885.75
2023-05-05T19:59:58.665Z,101892.97
2023-05-05T20:02:27.164Z,101889.44
2023-05-05T20:04:53.984Z,101905.47
2023-05-05T20:07:20.808Z,101899.50
2023-05-05T20:09:47.312Z,101896.34
2023-05-05T20:12:13.979Z,101906.00
2023-05-05T20:14:40.558Z,101901.84
2023-05-05T20:17:07.099Z,101905.03
2023-05-05T20:19:33.641Z,101897.53
2023-05-05T20:22:00.402Z,101905.84
2023-05-05T20:24:28.894Z,101905.53
2023-05-05T20:26:55.472Z,101914.84
2023-05-05T20:29:22.550Z,101909.88
2023-05-05T20:31:49.251Z,101907.06
2023-05-05T20:34:15.907Z,101912.53
2023-05-05T20:36:42.417Z,101906.06
2023-05-05T20:39:15.318Z,101915.06
2023-05-05T20:41:42.060Z,101924.03
2023-05-05T20:44:11.484Z,101918.03
2023-05-05T20:46:38.081Z,101913.53
2023-05-05T20:49:04.709Z,101905.22
2023-05-05T20:51:34.275Z,101916.06
2023-05-05T20:54:02.114Z,101912.34
2023-05-05T20:56:28.823Z,101901.56
2023-05-05T20:58:56.693Z,101898.56
2023-05-05T21:01:23.290Z,101903.56
2023-05-05T21:03:49.822Z,101904.38
2023-05-05T21:06:16.331Z,101903.34
2023-05-05T21:08:42.778Z,101900.53
2023-05-05T21:11:09.990Z,101906.53
2023-05-05T21:13:36.734Z,101908.53
2023-05-05T21:16:04.102Z,101909.50
2023-05-05T21:18:30.759Z,101903.84
2023-05-05T21:20:57.285Z,101898.53
2023-05-05T21:23:23.748Z,101896.53
2023-05-05T21:25:50.286Z,101900.03
2023-05-05T21:28:16.819Z,101895.22
2023-05-05T21:30:43.671Z,101894.53
2023-05-05T21:33:10.820Z,101896.66
2023-05-05T21:35:37.438Z,101908.63
2023-05-05T21:38:03.960Z,101907.44
2023-05-05T21:40:30.492Z,101905.13
2023-05-05T21:42:56.963Z,101909.75
2023-05-05T21:45:23.518Z,101900.63
2023-05-05T21:47:50.077Z,101902.13
2023-05-05T21:50:16.588Z,101895.13
2023-05-05T21:52:43.095Z,101904.09
2023-05-05T21:55:11.059Z,101893.78
2023-05-05T21:57:37.589Z,101899.44
2023-05-05T22:00:05.972Z,101900.56
2023-05-05T22:02:33.587Z,101902.72
2023-05-05T22:05:00.170Z,101887.09
2023-05-05T22:07:26.742Z,101883.44
2023-05-05T22:09:53.310Z,101898.69
2023-05-05T22:12:19.793Z,101895.69
2023-05-05T22:14:46.288Z,101888.84
2023-05-05T22:17:13.210Z,101903.16
2023-05-05T22:19:42.355Z,101902.69
2023-05-05T22:22:08.798Z,101901.72
2023-05-05T22:24:35.315Z,101905.69
2023-05-05T22:27:01.892Z,101898.00
2023-05-05T22:29:28.537Z,101899.94
2023-05-05T22:31:55.047Z,101902.59
2023-05-05T22:34:22.099Z,101905.25
2023-05-05T22:36:49.080Z,101909.22
2023-05-05T22:39:15.560Z,101900.41
2023-05-05T22:41:42.055Z,101897.25
2023-05-05T22:44:08.541Z,101898.59
2023-05-05T22:46:35.009Z,101904.91
2023-05-05T22:49:01.560Z,101891.94
2023-05-05T22:51:28.142Z,101898.59
2023-05-05T22:53:54.759Z,101903.06
2023-05-05T22:56:21.417Z,101893.28
2023-05-05T22:58:48.302Z,101900.94
2023-05-05T23:01:14.906Z,101895.63
2023-05-05T23:03:41.517Z,101884.81
2023-05-05T23:06:08.169Z,101893.47
2023-05-05T23:08:34.649Z,101882.34
2023-05-05T23:11:01.167Z,101890.66
2023-05-05T23:13:27.796Z,101887.16
2023-05-05T23:15:54.248Z,101893.13
2023-05-05T23:18:20.828Z,101890.34
2023-05-05T23:20:47.355Z,101883.19
2023-05-05T23:23:13.819Z,101890.03
2023-05-05T23:25:40.804Z,101885.84
2023-05-05T23:28:07.393Z,101886.38
2023-05-05T23:30:33.972Z,101877.06
2023-05-05T23:33:01.246Z,101882.19
2023-05-05T23:35:27.821Z,101877.22
2023-05-05T23:37:54.327Z,101886.03
2023-05-05T23:40:21.090Z,101881.69
2023-05-05T23:42:47.577Z,101887.00
2023-05-05T23:45:14.046Z,101892.97
2023-05-05T23:47:40.678Z,101888.47
2023-05-05T23:50:07.836Z,101874.19
2023-05-05T23:52:34.333Z,101878.06
2023-05-05T23:55:00.820Z,101874.41
2023-05-05T23:57:27.425Z,101875.44
2023-05-05T23:59:53.856Z,101876.41
